Arcola, Illinois
Current Conditions -  °F | °C
As of 3:53 AM on Saturday 01 Nov 2014 (Local Time) from KMTO Reporting Station
Clear Clear  
Wind Chill: 21°   Ceiling: Unl
Heat Index: 31°   Visibility: 10mi
Dew Point: 22°   Wind: 14mph
Humidity: 69%   Direction: 330°NNW
Pressure: 30.31"   Gusts: NA
Location:  39.68°N, 88.31°W
Report Text: KMTO 010853Z AUTO 33012KT 10SM CLR M01/M06 A3031 RMK AO2 SLP270 T10061056 53005
Loading
Personal Weather Stations






























Interactive Weather Map
Tropical Storm Tracking
New forecast layout! Learn more

10-Day Weather Forecast

Advertisements
Track Severe Weather on mobile